sensor_id;sensor_type;location;lat;lon;timestamp;pressure;altitude;pressure_sealevel;temperature;humidity
39949;BME280;29070;48.102;-1.652;2023-07-22T00:02:02;101522.81;;;16.46;57.17
39949;BME280;29070;48.102;-1.652;2023-07-22T00:07:03;101521.16;;;16.45;57.32
39949;BME280;29070;48.102;-1.652;2023-07-22T00:12:04;101516.28;;;16.42;57.70
39949;BME280;29070;48.102;-1.652;2023-07-22T00:17:05;101511.25;;;16.33;58.27
39949;BME280;29070;48.102;-1.652;2023-07-22T00:22:05;101511.47;;;16.32;58.40
39949;BME280;29070;48.102;-1.652;2023-07-22T00:27:06;101511.50;;;16.25;58.53
39949;BME280;29070;48.102;-1.652;2023-07-22T00:32:08;101518.47;;;16.19;58.93
39949;BME280;29070;48.102;-1.652;2023-07-22T00:37:09;101506.88;;;16.14;59.10
39949;BME280;29070;48.102;-1.652;2023-07-22T00:42:09;101511.63;;;16.05;59.27
39949;BME280;29070;48.102;-1.652;2023-07-22T00:47:10;101506.41;;;15.92;59.39
39949;BME280;29070;48.102;-1.652;2023-07-22T00:52:10;101497.50;;;15.79;59.81
39949;BME280;29070;48.102;-1.652;2023-07-22T00:57:11;101499.53;;;15.71;60.07
39949;BME280;29070;48.102;-1.652;2023-07-22T01:02:12;101498.31;;;15.67;60.24
39949;BME280;29070;48.102;-1.652;2023-07-22T01:07:13;101501.19;;;15.58;60.47
39949;BME280;29070;48.102;-1.652;2023-07-22T01:12:13;101491.44;;;15.52;60.88
39949;BME280;29070;48.102;-1.652;2023-07-22T01:17:14;101490.22;;;15.55;61.00
39949;BME280;29070;48.102;-1.652;2023-07-22T01:22:16;101478.03;;;15.47;61.25
39949;BME280;29070;48.102;-1.652;2023-07-22T01:27:17;101471.53;;;15.43;61.41
39949;BME280;29070;48.102;-1.652;2023-07-22T01:32:18;101484.16;;;15.34;61.86
39949;BME280;29070;48.102;-1.652;2023-07-22T01:37:18;101483.97;;;15.36;61.75
39949;BME280;29070;48.102;-1.652;2023-07-22T01:42:19;101487.84;;;15.33;61.46
39949;BME280;29070;48.102;-1.652;2023-07-22T01:47:19;101481.53;;;15.34;61.75
39949;BME280;29070;48.102;-1.652;2023-07-22T01:52:19;101477.47;;;15.32;61.56
39949;BME280;29070;48.102;-1.652;2023-07-22T01:57:20;101479.72;;;15.28;62.22
39949;BME280;29070;48.102;-1.652;2023-07-22T02:02:20;101480.13;;;15.18;62.18
39949;BME280;29070;48.102;-1.652;2023-07-22T02:07:21;101479.31;;;15.11;62.26
39949;BME280;29070;48.102;-1.652;2023-07-22T02:12:21;101477.72;;;15.03;62.54
39949;BME280;29070;48.102;-1.652;2023-07-22T02:17:22;101474.47;;;14.95;62.58
39949;BME280;29070;48.102;-1.652;2023-07-22T02:22:23;101467.97;;;14.91;63.04
39949;BME280;29070;48.102;-1.652;2023-07-22T02:27:23;101466.97;;;14.85;63.22
39949;BME280;29070;48.102;-1.652;2023-07-22T02:32:24;101470.66;;;14.77;63.40
39949;BME280;29070;48.102;-1.652;2023-07-22T02:37:24;101478.38;;;14.72;63.43
39949;BME280;29070;48.102;-1.652;2023-07-22T02:42:25;101467.59;;;14.67;63.71
39949;BME280;29070;48.102;-1.652;2023-07-22T02:47:25;101463.09;;;14.61;63.91
39949;BME280;29070;48.102;-1.652;2023-07-22T02:52:25;101456.22;;;14.60;63.96
39949;BME280;29070;48.102;-1.652;2023-07-22T02:57:26;101460.03;;;14.57;64.04
39949;BME280;29070;48.102;-1.652;2023-07-22T03:02:28;101458.81;;;14.53;64.42
39949;BME280;29070;48.102;-1.652;2023-07-22T03:07:29;101455.56;;;14.51;64.61
39949;BME280;29070;48.102;-1.652;2023-07-22T03:12:29;101458.22;;;14.51;64.64
39949;BME280;29070;48.102;-1.652;2023-07-22T03:17:29;101454.94;;;14.56;64.55
39949;BME280;29070;48.102;-1.652;2023-07-22T03:22:30;101450.50;;;14.56;64.75
39949;BME280;29070;48.102;-1.652;2023-07-22T03:27:31;101450.09;;;14.59;64.61
39949;BME280;29070;48.102;-1.652;2023-07-22T03:32:32;101447.25;;;14.61;64.89
39949;BME280;29070;48.102;-1.652;2023-07-22T03:37:32;101446.66;;;14.59;64.76
39949;BME280;29070;48.102;-1.652;2023-07-22T03:42:34;101449.66;;;14.56;64.78
39949;BME280;29070;48.102;-1.652;2023-07-22T03:47:34;101452.72;;;14.53;64.67
39949;BME280;29070;48.102;-1.652;2023-07-22T03:52:35;101459.41;;;14.48;64.97
39949;BME280;29070;48.102;-1.652;2023-07-22T03:57:35;101458.00;;;14.39;65.25
39949;BME280;29070;48.102;-1.652;2023-07-22T04:02:36;101454.94;;;14.36;65.33
39949;BME280;29070;48.102;-1.652;2023-07-22T04:07:36;101459.81;;;14.32;65.56
39949;BME280;29070;48.102;-1.652;2023-07-22T04:12:37;101466.31;;;14.29;65.64
39949;BME280;29070;48.102;-1.652;2023-07-22T04:17:38;101469.16;;;14.28;65.85
39949;BME280;29070;48.102;-1.652;2023-07-22T04:22:38;101461.84;;;14.30;65.77
39949;BME280;29070;48.102;-1.652;2023-07-22T04:27:39;101463.88;;;14.28;66.12
39949;BME280;29070;48.102;-1.652;2023-07-22T04:32:39;101468.75;;;14.31;66.05
39949;BME280;29070;48.102;-1.652;2023-07-22T04:37:39;101464.69;;;14.35;65.95
39949;BME280;29070;48.102;-1.652;2023-07-22T04:42:40;101466.94;;;14.38;65.90
39949;BME280;29070;48.102;-1.652;2023-07-22T04:47:41;101462.47;;;14.39;65.95
39949;BME280;29070;48.102;-1.652;2023-07-22T04:52:46;101455.75;;;14.43;65.91
39949;BME280;29070;48.102;-1.652;2023-07-22T04:57:47;101464.69;;;14.48;66.08
39949;BME280;29070;48.102;-1.652;2023-07-22T05:02:47;101462.06;;;14.55;66.08
39949;BME280;29070;48.102;-1.652;2023-07-22T05:07:48;101470.84;;;14.62;66.36
39949;BME280;29070;48.102;-1.652;2023-07-22T05:12:49;101462.50;;;14.72;66.76
39949;BME280;29070;48.102;-1.652;2023-07-22T05:17:50;101466.19;;;14.84;66.57
39949;BME280;29070;48.102;-1.652;2023-07-22T05:22:50;101465.53;;;14.96;66.51
39949;BME280;29070;48.102;-1.652;2023-07-22T05:27:50;101465.09;;;15.12;66.28
39949;BME280;29070;48.102;-1.652;2023-07-22T05:32:53;101442.28;;;15.24;66.41
39949;BME280;29070;48.102;-1.652;2023-07-22T05:37:54;101449.19;;;15.32;66.43
39949;BME280;29070;48.102;-1.652;2023-07-22T05:42:54;101443.88;;;15.39;66.38
39949;BME280;29070;48.102;-1.652;2023-07-22T05:47:54;101447.75;;;15.36;66.90
39949;BME280;29070;48.102;-1.652;2023-07-22T05:52:55;101450.38;;;15.43;66.65
39949;BME280;29070;48.102;-1.652;2023-07-22T05:57:55;101454.78;;;15.56;66.79
39949;BME280;29070;48.102;-1.652;2023-07-22T06:02:56;101450.06;;;15.64;66.55
39949;BME280;29070;48.102;-1.652;2023-07-22T06:07:56;101456.94;;;15.79;66.69
39949;BME280;29070;48.102;-1.652;2023-07-22T06:12:57;101450.41;;;15.88;66.63
39949;BME280;29070;48.102;-1.652;2023-07-22T06:17:58;101444.44;;;15.99;66.62
39949;BME280;29070;48.102;-1.652;2023-07-22T06:22:58;101446.81;;;16.08;66.26
39949;BME280;29070;48.102;-1.652;2023-07-22T06:27:58;101453.13;;;16.13;66.07
39949;BME280;29070;48.102;-1.652;2023-07-22T06:32:59;101456.75;;;16.19;65.94
39949;BME280;29070;48.102;-1.652;2023-07-22T06:37:59;101459.78;;;16.23;66.21
39949;BME280;29070;48.102;-1.652;2023-07-22T06:42:59;101466.44;;;16.32;66.33
39949;BME280;29070;48.102;-1.652;2023-07-22T06:48:00;101464.75;;;16.37;66.49
39949;BME280;29070;48.102;-1.652;2023-07-22T06:53:00;101470.41;;;16.48;65.93
39949;BME280;29070;48.102;-1.652;2023-07-22T06:58:01;101462.16;;;16.56;66.20
39949;BME280;29070;48.102;-1.652;2023-07-22T07:03:01;101466.41;;;16.64;66.22
39949;BME280;29070;48.102;-1.652;2023-07-22T07:08:02;101456.75;;;16.69;65.75
39949;BME280;29070;48.102;-1.652;2023-07-22T07:13:02;101454.84;;;16.83;65.75
39949;BME280;29070;48.102;-1.652;2023-07-22T07:18:03;101458.63;;;16.94;65.45
39949;BME280;29070;48.102;-1.652;2023-07-22T07:23:03;101446.97;;;16.95;65.79
39949;BME280;29070;48.102;-1.652;2023-07-22T07:28:04;101445.34;;;17.12;65.58
39949;BME280;29070;48.102;-1.652;2023-07-22T07:33:04;101439.47;;;17.29;65.55
39949;BME280;29070;48.102;-1.652;2023-07-22T07:38:05;101437.06;;;17.58;65.06
39949;BME280;29070;48.102;-1.652;2023-07-22T07:43:05;101435.56;;;17.80;64.56
39949;BME280;29070;48.102;-1.652;2023-07-22T07:48:06;101436.06;;;18.19;64.55
39949;BME280;29070;48.102;-1.652;2023-07-22T07:53:06;101430.53;;;18.56;64.03
39949;BME280;29070;48.102;-1.652;2023-07-22T07:58:06;101424.78;;;18.83;63.59
39949;BME280;29070;48.102;-1.652;2023-07-22T08:03:07;101427.66;;;19.05;63.24
39949;BME280;29070;48.102;-1.652;2023-07-22T08:08:07;101430.38;;;19.22;62.72
39949;BME280;29070;48.102;-1.652;2023-07-22T08:13:07;101430.25;;;19.29;62.37
39949;BME280;29070;48.102;-1.652;2023-07-22T08:18:08;101438.81;;;19.71;62.27
39949;BME280;29070;48.102;-1.652;2023-07-22T08:23:08;101449.66;;;19.81;61.47
39949;BME280;29070;48.102;-1.652;2023-07-22T08:28:08;101434.59;;;19.87;61.07
39949;BME280;29070;48.102;-1.652;2023-07-22T08:33:09;101431.66;;;20.17;61.32
39949;BME280;29070;48.102;-1.652;2023-07-22T08:38:11;101436.25;;;20.39;60.40
39949;BME280;29070;48.102;-1.652;2023-07-22T08:43:12;101436.56;;;20.77;60.01
39949;BME280;29070;48.102;-1.652;2023-07-22T08:48:12;101431.69;;;21.35;59.22
39949;BME280;29070;48.102;-1.652;2023-07-22T08:53:15;101421.91;;;21.67;58.43
39949;BME280;29070;48.102;-1.652;2023-07-22T08:58:15;101431.34;;;21.75;57.84
39949;BME280;29070;48.102;-1.652;2023-07-22T09:03:16;101422.31;;;22.14;57.35
39949;BME280;29070;48.102;-1.652;2023-07-22T09:08:17;101431.34;;;22.35;56.31
39949;BME280;29070;48.102;-1.652;2023-07-22T09:13:18;101423.16;;;22.52;56.02
39949;BME280;29070;48.102;-1.652;2023-07-22T09:18:19;101428.66;;;22.35;55.16
39949;BME280;29070;48.102;-1.652;2023-07-22T09:23:34;101418.00;;;22.07;53.56
39949;BME280;29070;48.102;-1.652;2023-07-22T09:28:55;101416.41;;;21.79;54.27
39949;BME280;29070;48.102;-1.652;2023-07-22T09:34:09;101410.34;;;21.89;53.68
39949;BME280;29070;48.102;-1.652;2023-07-22T09:39:09;101413.41;;;22.35;54.16
39949;BME280;29070;48.102;-1.652;2023-07-22T09:44:10;101404.13;;;22.96;53.83
39949;BME280;29070;48.102;-1.652;2023-07-22T09:49:12;101408.09;;;23.56;52.98
39949;BME280;29070;48.102;-1.652;2023-07-22T09:54:12;101415.59;;;23.49;51.78
39949;BME280;29070;48.102;-1.652;2023-07-22T09:59:13;101397.94;;;23.74;51.67
39949;BME280;29070;48.102;-1.652;2023-07-22T10:04:16;101399.81;;;24.35;50.98
39949;BME280;29070;48.102;-1.652;2023-07-22T10:09:17;101393.59;;;24.50;50.08
39949;BME280;29070;48.102;-1.652;2023-07-22T10:14:18;101395.19;;;24.66;49.48
39949;BME280;29070;48.102;-1.652;2023-07-22T10:19:20;101379.94;;;24.41;49.18
39949;BME280;29070;48.102;-1.652;2023-07-22T10:24:21;101380.50;;;24.23;48.57
39949;BME280;29070;48.102;-1.652;2023-07-22T10:29:22;101379.38;;;24.49;48.99
39949;BME280;29070;48.102;-1.652;2023-07-22T10:34:24;101381.59;;;25.12;47.74
39949;BME280;29070;48.102;-1.652;2023-07-22T10:39:28;101362.66;;;25.38;46.24
39949;BME280;29070;48.102;-1.652;2023-07-22T10:44:31;101355.53;;;25.92;45.95
39949;BME280;29070;48.102;-1.652;2023-07-22T10:49:47;101364.19;;;25.49;44.58
39949;BME280;29070;48.102;-1.652;2023-07-22T10:54:48;101350.66;;;25.65;45.80
39949;BME280;29070;48.102;-1.652;2023-07-22T10:59:49;101345.53;;;25.24;45.55
39949;BME280;29070;48.102;-1.652;2023-07-22T11:04:50;101339.59;;;25.66;45.15
39949;BME280;29070;48.102;-1.652;2023-07-22T11:09:50;101335.22;;;26.34;44.55
39949;BME280;29070;48.102;-1.652;2023-07-22T11:14:52;101318.22;;;26.39;43.81
39949;BME280;29070;48.102;-1.652;2023-07-22T11:19:53;101315.16;;;25.97;43.45
39949;BME280;29070;48.102;-1.652;2023-07-22T11:24:53;101314.34;;;25.97;43.53
39949;BME280;29070;48.102;-1.652;2023-07-22T11:29:57;101291.22;;;25.96;42.73
39949;BME280;29070;48.102;-1.652;2023-07-22T11:34:58;101298.38;;;25.76;42.97
39949;BME280;29070;48.102;-1.652;2023-07-22T11:40:01;101284.25;;;25.95;42.05
39949;BME280;29070;48.102;-1.652;2023-07-22T11:45:02;101285.84;;;25.96;42.50
39949;BME280;29070;48.102;-1.652;2023-07-22T11:50:03;101282.28;;;26.00;42.06
39949;BME280;29070;48.102;-1.652;2023-07-22T11:55:04;101277.38;;;25.78;41.94
39949;BME280;29070;48.102;-1.652;2023-07-22T12:00:08;101259.88;;;26.53;41.34
39949;BME280;29070;48.102;-1.652;2023-07-22T12:05:09;101276.09;;;27.10;40.74
39949;BME280;29070;48.102;-1.652;2023-07-22T12:10:09;101264.94;;;26.79;40.75
39949;BME280;29070;48.102;-1.652;2023-07-22T12:15:15;101256.66;;;26.94;40.05
39949;BME280;29070;48.102;-1.652;2023-07-22T12:20:16;101246.88;;;26.60;40.18
39949;BME280;29070;48.102;-1.652;2023-07-22T12:25:17;101243.59;;;27.01;40.18
39949;BME280;29070;48.102;-1.652;2023-07-22T12:30:18;101235.38;;;27.12;39.94
39949;BME280;29070;48.102;-1.652;2023-07-22T12:35:18;101232.22;;;27.56;39.40
39949;BME280;29070;48.102;-1.652;2023-07-22T12:40:19;101228.94;;;27.73;38.67
39949;BME280;29070;48.102;-1.652;2023-07-22T12:45:21;101229.81;;;28.38;38.28
39949;BME280;29070;48.102;-1.652;2023-07-22T12:50:22;101229.19;;;28.69;37.27
39949;BME280;29070;48.102;-1.652;2023-07-22T12:55:22;101220.03;;;28.79;37.20
39949;BME280;29070;48.102;-1.652;2023-07-22T13:00:23;101221.22;;;29.09;36.47
39949;BME280;29070;48.102;-1.652;2023-07-22T13:05:23;101228.63;;;29.17;36.36
39949;BME280;29070;48.102;-1.652;2023-07-22T13:10:25;101214.97;;;29.00;36.23
39949;BME280;29070;48.102;-1.652;2023-07-22T13:15:25;101212.72;;;28.57;36.39
39949;BME280;29070;48.102;-1.652;2023-07-22T13:20:26;101213.41;;;28.48;36.39
39949;BME280;29070;48.102;-1.652;2023-07-22T13:25:26;101210.72;;;28.34;36.34
39949;BME280;29070;48.102;-1.652;2023-07-22T13:30:26;101207.91;;;28.54;35.98
39949;BME280;29070;48.102;-1.652;2023-07-22T13:35:29;101202.47;;;28.67;35.33
39949;BME280;29070;48.102;-1.652;2023-07-22T13:40:30;101204.25;;;28.72;35.12
39949;BME280;29070;48.102;-1.652;2023-07-22T13:45:32;101182.44;;;28.68;35.25
39949;BME280;29070;48.102;-1.652;2023-07-22T13:50:32;101186.84;;;28.78;35.10
39949;BME280;29070;48.102;-1.652;2023-07-22T13:55:32;101194.56;;;28.94;34.87
39949;BME280;29070;48.102;-1.652;2023-07-22T14:00:33;101185.34;;;28.72;35.08
39949;BME280;29070;48.102;-1.652;2023-07-22T14:05:35;101177.50;;;28.62;34.78
39949;BME280;29070;48.102;-1.652;2023-07-22T14:10:35;101176.44;;;28.71;34.69
39949;BME280;29070;48.102;-1.652;2023-07-22T14:15:36;101169.00;;;29.00;34.79
39949;BME280;29070;48.102;-1.652;2023-07-22T14:20:36;101173.94;;;28.98;34.59
39949;BME280;29070;48.102;-1.652;2023-07-22T14:25:37;101166.56;;;28.89;34.14
39949;BME280;29070;48.102;-1.652;2023-07-22T14:30:37;101172.50;;;28.78;34.13
39949;BME280;29070;48.102;-1.652;2023-07-22T14:35:38;101161.28;;;28.62;34.26
39949;BME280;29070;48.102;-1.652;2023-07-22T14:40:38;101149.00;;;28.78;34.35
39949;BME280;29070;48.102;-1.652;2023-07-22T14:45:38;101154.78;;;28.26;33.80
39949;BME280;29070;48.102;-1.652;2023-07-22T14:50:39;101162.09;;;27.84;34.37
39949;BME280;29070;48.102;-1.652;2023-07-22T14:55:39;101162.22;;;27.93;34.29
39949;BME280;29070;48.102;-1.652;2023-07-22T15:00:39;101151.31;;;27.98;34.67
39949;BME280;29070;48.102;-1.652;2023-07-22T15:05:40;101159.97;;;27.39;34.73
39949;BME280;29070;48.102;-1.652;2023-07-22T15:10:40;101152.53;;;27.78;34.45
39949;BME280;29070;48.102;-1.652;2023-07-22T15:15:41;101158.50;;;27.61;34.80
39949;BME280;29070;48.102;-1.652;2023-07-22T15:20:41;101139.53;;;27.66;35.34
39949;BME280;29070;48.102;-1.652;2023-07-22T15:25:41;101142.94;;;27.58;34.66
39949;BME280;29070;48.102;-1.652;2023-07-22T15:30:42;101135.44;;;27.55;34.89
39949;BME280;29070;48.102;-1.652;2023-07-22T15:35:42;101136.41;;;27.45;34.86
39949;BME280;29070;48.102;-1.652;2023-07-22T15:40:42;101129.25;;;27.41;34.97
39949;BME280;29070;48.102;-1.652;2023-07-22T15:45:43;101131.03;;;27.45;34.71
39949;BME280;29070;48.102;-1.652;2023-07-22T15:50:43;101134.22;;;27.33;35.04
39949;BME280;29070;48.102;-1.652;2023-07-22T15:55:44;101119.25;;;26.94;35.26
39949;BME280;29070;48.102;-1.652;2023-07-22T16:00:44;101112.78;;;27.09;34.97
39949;BME280;29070;48.102;-1.652;2023-07-22T16:05:44;101120.31;;;26.79;35.25
39949;BME280;29070;48.102;-1.652;2023-07-22T16:10:45;101113.94;;;26.56;35.63
39949;BME280;29070;48.102;-1.652;2023-07-22T16:15:45;101110.41;;;26.56;35.81
39949;BME280;29070;48.102;-1.652;2023-07-22T16:20:45;101125.34;;;26.10;36.12
39949;BME280;29070;48.102;-1.652;2023-07-22T16:25:46;101129.78;;;26.20;36.50
39949;BME280;29070;48.102;-1.652;2023-07-22T16:30:46;101109.81;;;25.83;36.18
39949;BME280;29070;48.102;-1.652;2023-07-22T16:35:47;101123.66;;;25.71;36.52
39949;BME280;29070;48.102;-1.652;2023-07-22T16:40:47;101127.66;;;25.49;36.67
39949;BME280;29070;48.102;-1.652;2023-07-22T16:45:48;101118.50;;;25.21;37.04
39949;BME280;29070;48.102;-1.652;2023-07-22T16:50:48;101105.88;;;25.22;37.33
39949;BME280;29070;48.102;-1.652;2023-07-22T16:55:48;101096.75;;;25.23;37.49
39949;BME280;29070;48.102;-1.652;2023-07-22T17:00:49;101095.28;;;25.06;37.53
39949;BME280;29070;48.102;-1.652;2023-07-22T17:05:49;101096.59;;;24.80;38.18
39949;BME280;29070;48.102;-1.652;2023-07-22T17:10:50;101094.66;;;24.56;38.09
39949;BME280;29070;48.102;-1.652;2023-07-22T17:15:50;101099.03;;;24.36;38.16
39949;BME280;29070;48.102;-1.652;2023-07-22T17:20:50;101095.38;;;24.22;38.46
39949;BME280;29070;48.102;-1.652;2023-07-22T17:25:51;101093.06;;;24.00;38.91
39949;BME280;29070;48.102;-1.652;2023-07-22T17:30:51;101088.06;;;23.83;38.94
39949;BME280;29070;48.102;-1.652;2023-07-22T17:35:51;101091.59;;;23.63;39.54
39949;BME280;29070;48.102;-1.652;2023-07-22T17:40:52;101091.41;;;23.34;39.73
39949;BME280;29070;48.102;-1.652;2023-07-22T17:45:52;101077.28;;;23.13;40.16
39949;BME280;29070;48.102;-1.652;2023-07-22T17:50:53;101064.38;;;22.99;40.11
39949;BME280;29070;48.102;-1.652;2023-07-22T17:55:53;101081.53;;;22.83;40.43
39949;BME280;29070;48.102;-1.652;2023-07-22T18:00:53;101077.28;;;22.72;40.70
39949;BME280;29070;48.102;-1.652;2023-07-22T18:05:54;101070.56;;;22.59;41.02
39949;BME280;29070;48.102;-1.652;2023-07-22T18:10:54;101062.78;;;22.42;41.68
39949;BME280;29070;48.102;-1.652;2023-07-22T18:15:54;101053.63;;;22.17;42.28
39949;BME280;29070;48.102;-1.652;2023-07-22T18:20:55;101060.81;;;22.01;42.36
39949;BME280;29070;48.102;-1.652;2023-07-22T18:25:55;101059.69;;;21.87;42.66
39949;BME280;29070;48.102;-1.652;2023-07-22T18:30:55;101057.53;;;21.74;42.92
39949;BME280;29070;48.102;-1.652;2023-07-22T18:35:56;101056.97;;;21.66;43.75
39949;BME280;29070;48.102;-1.652;2023-07-22T18:40:57;101056.63;;;21.52;43.68
39949;BME280;29070;48.102;-1.652;2023-07-22T18:45:58;101065.88;;;21.40;44.52
39949;BME280;29070;48.102;-1.652;2023-07-22T18:50:58;101060.47;;;21.29;44.61
39949;BME280;29070;48.102;-1.652;2023-07-22T18:55:58;101058.81;;;21.18;45.06
39949;BME280;29070;48.102;-1.652;2023-07-22T19:00:59;101055.56;;;21.11;45.60
39949;BME280;29070;48.102;-1.652;2023-07-22T19:06:00;101055.78;;;21.04;45.73
39949;BME280;29070;48.102;-1.652;2023-07-22T19:11:00;101044.19;;;20.88;45.77
39949;BME280;29070;48.102;-1.652;2023-07-22T19:16:03;101050.50;;;20.77;45.79
39949;BME280;29070;48.102;-1.652;2023-07-22T19:21:03;101050.44;;;20.67;45.86
39949;BME280;29070;48.102;-1.652;2023-07-22T19:26:04;101034.06;;;20.58;45.85
39949;BME280;29070;48.102;-1.652;2023-07-22T19:31:04;101045.44;;;20.48;46.24
39949;BME280;29070;48.102;-1.652;2023-07-22T19:36:06;101024.03;;;20.38;46.49
39949;BME280;29070;48.102;-1.652;2023-07-22T19:41:09;101025.03;;;20.32;46.60
39949;BME280;29070;48.102;-1.652;2023-07-22T19:46:12;101024.75;;;20.28;47.09
39949;BME280;29070;48.102;-1.652;2023-07-22T19:51:13;101025.25;;;20.25;47.06
39949;BME280;29070;48.102;-1.652;2023-07-22T19:56:13;101031.31;;;20.21;47.14
39949;BME280;29070;48.102;-1.652;2023-07-22T20:01:14;101029.16;;;20.17;47.56
39949;BME280;29070;48.102;-1.652;2023-07-22T20:06:15;101029.84;;;20.08;47.51
39949;BME280;29070;48.102;-1.652;2023-07-22T20:11:15;101031.72;;;20.07;48.07
39949;BME280;29070;48.102;-1.652;2023-07-22T20:16:15;101041.28;;;20.03;48.36
39949;BME280;29070;48.102;-1.652;2023-07-22T20:21:16;101032.16;;;19.99;48.80
39949;BME280;29070;48.102;-1.652;2023-07-22T20:26:16;101035.00;;;19.92;48.76
39949;BME280;29070;48.102;-1.652;2023-07-22T20:31:17;101039.22;;;19.88;49.00
39949;BME280;29070;48.102;-1.652;2023-07-22T20:36:17;101038.94;;;19.85;49.55
39949;BME280;29070;48.102;-1.652;2023-07-22T20:41:18;101027.97;;;19.81;49.36
39949;BME280;29070;48.102;-1.652;2023-07-22T20:46:18;101035.16;;;19.80;49.98
39949;BME280;29070;48.102;-1.652;2023-07-22T20:51:18;101039.03;;;19.73;50.26
39949;BME280;29070;48.102;-1.652;2023-07-22T20:56:20;101038.44;;;19.66;50.56
39949;BME280;29070;48.102;-1.652;2023-07-22T21:01:23;101044.72;;;19.59;50.88
39949;BME280;29070;48.102;-1.652;2023-07-22T21:06:25;101040.50;;;19.63;51.28
39949;BME280;29070;48.102;-1.652;2023-07-22T21:11:25;101039.88;;;19.56;51.20
39949;BME280;29070;48.102;-1.652;2023-07-22T21:16:26;101039.88;;;19.56;51.75
39949;BME280;29070;48.102;-1.652;2023-07-22T21:21:26;101042.91;;;19.43;52.20
39949;BME280;29070;48.102;-1.652;2023-07-22T21:26:27;101034.06;;;19.37;52.65
39949;BME280;29070;48.102;-1.652;2023-07-22T21:31:27;101032.88;;;19.28;52.90
39949;BME280;29070;48.102;-1.652;2023-07-22T21:36:27;101036.44;;;19.17;53.37
39949;BME280;29070;48.102;-1.652;2023-07-22T21:41:28;101032.09;;;19.11;53.99
39949;BME280;29070;48.102;-1.652;2023-07-22T21:46:28;101030.97;;;19.07;54.18
39949;BME280;29070;48.102;-1.652;2023-07-22T21:51:28;101030.81;;;18.96;54.69
39949;BME280;29070;48.102;-1.652;2023-07-22T21:56:29;101023.09;;;18.95;55.10
39949;BME280;29070;48.102;-1.652;2023-07-22T22:01:29;101021.47;;;18.94;55.29
39949;BME280;29070;48.102;-1.652;2023-07-22T22:06:29;101025.34;;;18.86;55.67
39949;BME280;29070;48.102;-1.652;2023-07-22T22:11:30;101013.72;;;18.75;56.07
39949;BME280;29070;48.102;-1.652;2023-07-22T22:16:30;101004.38;;;18.73;56.24
39949;BME280;29070;48.102;-1.652;2023-07-22T22:21:30;101004.22;;;18.62;56.61
39949;BME280;29070;48.102;-1.652;2023-07-22T22:26:31;100995.81;;;18.54;57.07
39949;BME280;29070;48.102;-1.652;2023-07-22T22:31:33;100983.19;;;18.44;57.52
39949;BME280;29070;48.102;-1.652;2023-07-22T22:36:34;100984.59;;;18.35;58.01
39949;BME280;29070;48.102;-1.652;2023-07-22T22:41:34;100975.03;;;18.34;58.40
39949;BME280;29070;48.102;-1.652;2023-07-22T22:46:37;100973.09;;;18.29;58.83
39949;BME280;29070;48.102;-1.652;2023-07-22T22:51:37;100962.13;;;18.25;59.18
39949;BME280;29070;48.102;-1.652;2023-07-22T22:56:38;100951.19;;;18.22;59.25
39949;BME280;29070;48.102;-1.652;2023-07-22T23:01:38;100941.53;;;18.16;59.76
39949;BME280;29070;48.102;-1.652;2023-07-22T23:06:38;100923.97;;;18.15;60.04
39949;BME280;29070;48.102;-1.652;2023-07-22T23:11:39;100914.41;;;18.14;60.13
39949;BME280;29070;48.102;-1.652;2023-07-22T23:16:39;100911.88;;;18.07;60.44
39949;BME280;29070;48.102;-1.652;2023-07-22T23:21:39;100907.13;;;18.09;60.78
39949;BME280;29070;48.102;-1.652;2023-07-22T23:26:40;100906.09;;;18.10;60.99
39949;BME280;29070;48.102;-1.652;2023-07-22T23:31:40;100907.13;;;18.09;61.49
39949;BME280;29070;48.102;-1.652;2023-07-22T23:36:41;100902.84;;;18.08;61.90
39949;BME280;29070;48.102;-1.652;2023-07-22T23:41:41;100909.31;;;18.12;62.01
39949;BME280;29070;48.102;-1.652;2023-07-22T23:46:41;100897.16;;;18.16;62.03
39949;BME280;29070;48.102;-1.652;2023-07-22T23:51:42;100892.88;;;18.15;62.04
39949;BME280;29070;48.102;-1.652;2023-07-22T23:56:42;100881.44;;;18.15;62.41
